Time;durP1;ratioP1;P1;durP2;ratioP2;P2;SDS_P1;SDS_P2;PMS_P1;PMS_P2;Temp;Humidity;BMP_temperature;BMP_pressure;BME280_temperature;BME280_humidity;BME280_pressure;Samples;Min_cycle;Max_cycle;Signal;HPM_P1;HPM_P2
2022/06/23 00:01:44;;;;;;;7.68;4.43;;;19.60;20.10;;;;;;4986865;28;34145;-76
2022/06/23 00:04:14;;;;;;;9.27;4.60;;;19.70;22.10;;;;;;5004478;28;34268;-75
2022/06/23 00:06:48;;;;;;;9.98;4.28;;;19.60;20.10;;;;;;4986377;28;35799;-74
2022/06/23 00:09:32;;;;;;;5.25;4.45;;;19.60;21.70;;;;;;4995734;28;34162;-75
2022/06/23 00:11:58;;;;;;;7.50;4.75;;;19.60;21.60;;;;;;4994233;28;34184;-75
2022/06/23 00:14:26;;;;;;;4.95;4.40;;;19.60;20.00;;;;;;5004325;28;34347;-76
2022/06/23 00:16:51;;;;;;;8.85;4.68;;;19.60;20.20;;;;;;5002959;28;34188;-76
2022/06/23 00:19:18;;;;;;;6.30;4.63;;;19.60;20.20;;;;;;4986240;28;35656;-75
2022/06/23 00:21:48;;;;;;;6.20;4.53;;;19.60;20.20;;;;;;5002312;28;34136;-75
2022/06/23 00:24:19;;;;;;;5.25;4.45;;;19.60;20.40;;;;;;4996016;28;34290;-74
2022/06/23 00:26:45;;;;;;;9.00;4.20;;;19.60;20.60;;;;;;5003781;28;34185;-75
2022/06/23 00:29:15;;;;;;;8.57;4.45;;;19.60;20.20;;;;;;4986181;28;35739;-75
2022/06/23 00:31:45;;;;;;;5.43;4.25;;;19.60;20.20;;;;;;4986316;28;34159;-75
2022/06/23 00:34:24;;;;;;;5.20;4.07;;;19.50;20.60;;;;;;4986552;28;34283;-75
2022/06/23 00:37:05;;;;;;;8.77;4.57;;;19.60;22.00;;;;;;5005014;28;34034;-75
2022/06/23 00:39:42;;;;;;;8.40;4.38;;;19.50;21.00;;;;;;5022275;28;36565;-74
2022/06/23 00:42:26;;;;;;;5.80;4.70;;;19.50;21.50;;;;;;5005528;28;34171;-74
2022/06/23 00:45:18;;;;;;;6.18;4.30;;;19.50;22.10;;;;;;4994082;28;34092;-75
2022/06/23 00:47:58;;;;;;;8.73;4.22;;;19.50;22.00;;;;;;5003228;28;34077;-75
2022/06/23 00:50:44;;;;;;;5.95;4.57;;;19.40;21.30;;;;;;5003227;28;34249;-75
2022/06/23 00:53:22;;;;;;;4.43;4.03;;;19.30;22.40;;;;;;4986025;28;34400;-74
2022/06/23 00:56:08;;;;;;;5.38;4.55;;;19.30;21.40;;;;;;5003363;28;34228;-75
2022/06/23 00:58:45;;;;;;;4.97;4.45;;;19.20;21.50;;;;;;5003409;28;34070;-74
2022/06/23 01:01:39;;;;;;;4.38;3.58;;;19.20;20.90;;;;;;5002176;28;35657;-74
2022/06/23 01:04:19;;;;;;;5.38;4.70;;;19.10;21.60;;;;;;4995382;28;34194;-75
2022/06/23 01:06:56;;;;;;;6.75;4.60;;;19.10;21.80;;;;;;5005946;28;34298;-75
2022/06/23 01:09:31;;;;;;;5.30;4.53;;;19.00;20.90;;;;;;4999303;28;34475;-74
2022/06/23 01:12:20;;;;;;;6.00;4.60;;;19.00;21.30;;;;;;4981251;28;35588;-75
2022/06/23 01:15:01;;;;;;;4.55;4.15;;;18.90;22.90;;;;;;5002517;28;34464;-74
2022/06/23 01:17:47;;;;;;;7.45;4.18;;;18.90;21.20;;;;;;5006678;28;34439;-75
2022/06/23 01:20:35;;;;;;;7.45;4.50;;;18.90;23.10;;;;;;5006580;28;34003;-74
2022/06/23 01:23:22;;;;;;;4.20;3.80;;;18.90;22.90;;;;;;5006488;28;34222;-74
2022/06/23 01:26:10;;;;;;;5.10;4.60;;;18.80;21.70;;;;;;5005327;28;34338;-75
2022/06/23 01:28:38;;;;;;;5.78;3.92;;;18.80;21.60;;;;;;4984175;28;34187;-74
2022/06/23 01:31:22;;;;;;;5.32;4.03;;;18.70;21.20;;;;;;4988730;28;34502;-75
2022/06/23 01:34:02;;;;;;;7.00;4.68;;;18.70;21.30;;;;;;5004927;28;35653;-74
2022/06/23 01:36:36;;;;;;;9.88;4.20;;;18.60;21.30;;;;;;5008107;28;34266;-75
2022/06/23 01:39:17;;;;;;;5.78;4.20;;;18.60;21.50;;;;;;5025236;28;34181;-76
2022/06/23 01:41:53;;;;;;;5.13;4.10;;;18.50;21.80;;;;;;5025120;28;34509;-75
2022/06/23 01:44:42;;;;;;;5.28;4.43;;;18.40;21.70;;;;;;5009320;28;35883;-74
2022/06/23 01:47:38;;;;;;;7.40;4.70;;;18.40;22.90;;;;;;5008910;28;34082;-75
2022/06/23 01:50:25;;;;;;;8.95;4.85;;;18.40;23.40;;;;;;5004963;28;34488;-75
2022/06/23 01:53:08;;;;;;;4.43;3.90;;;18.30;23.20;;;;;;5005074;28;34371;-75
2022/06/23 01:55:59;;;;;;;4.47;4.07;;;18.30;22.90;;;;;;4989902;28;34764;-75
2022/06/23 01:58:39;;;;;;;7.18;4.30;;;18.30;22.70;;;;;;4999539;28;34278;-74
2022/06/23 02:01:10;;;;;;;4.60;3.85;;;18.20;21.70;;;;;;5013470;28;34438;-75
2022/06/23 02:03:42;;;;;;;5.10;4.25;;;18.20;21.50;;;;;;5026033;28;34504;-75
2022/06/23 02:06:21;;;;;;;8.07;4.95;;;18.20;22.00;;;;;;5000434;28;36000;-76
2022/06/23 02:09:02;;;;;;;4.07;3.67;;;18.10;23.10;;;;;;5025573;28;34446;-75
2022/06/23 02:11:47;;;;;;;6.15;4.70;;;18.10;22.40;;;;;;4998073;28;34333;-75
2022/06/23 02:14:42;;;;;;;4.90;4.22;;;18.10;22.10;;;;;;5004283;28;34453;-75
2022/06/23 02:17:32;;;;;;;9.43;4.47;;;18.00;23.30;;;;;;4990280;28;34183;-75
2022/06/23 02:20:14;;;;;;;7.28;4.50;;;18.00;22.80;;;;;;5005493;28;34249;-76
2022/06/23 02:22:45;;;;;;;4.68;4.18;;;17.90;22.10;;;;;;4988151;28;34186;-76
2022/06/23 02:25:18;;;;;;;4.88;4.20;;;17.90;22.00;;;;;;4988087;28;34281;-75
2022/06/23 02:27:51;;;;;;;9.68;4.28;;;17.90;22.10;;;;;;4988006;28;36125;-76
2022/06/23 02:30:31;;;;;;;6.03;4.18;;;17.80;22.40;;;;;;4963989;28;34175;-76
2022/06/23 02:33:18;;;;;;;10.88;4.18;;;17.80;22.60;;;;;;4987303;28;34086;-75
2022/06/23 02:36:07;;;;;;;7.18;4.68;;;17.70;23.30;;;;;;4988453;28;34399;-75
2022/06/23 02:38:37;;;;;;;5.53;4.25;;;17.70;22.70;;;;;;4993204;28;35563;-75
2022/06/23 02:41:11;;;;;;;6.75;4.65;;;17.70;22.20;;;;;;5018691;28;34122;-76
2022/06/23 02:43:45;;;;;;;7.13;4.53;;;17.60;22.20;;;;;;5003958;28;34294;-76
2022/06/23 02:46:41;;;;;;;5.63;4.30;;;17.60;22.60;;;;;;5004689;28;34447;-76
2022/06/23 02:49:39;;;;;;;6.68;4.53;;;17.60;24.10;;;;;;5004081;28;35846;-76
2022/06/23 02:52:26;;;;;;;5.97;4.72;;;17.60;24.10;;;;;;4991175;28;34258;-76
2022/06/23 02:55:09;;;;;;;5.47;4.53;;;17.50;23.90;;;;;;4971117;28;34218;-76
2022/06/23 02:57:48;;;;;;;10.20;4.93;;;17.50;23.70;;;;;;5005047;28;34256;-76
2022/06/23 03:00:21;;;;;;;10.13;4.60;;;17.50;22.90;;;;;;4972196;28;35710;-76
2022/06/23 03:03:07;;;;;;;6.78;4.60;;;17.50;22.70;;;;;;5005228;28;34287;-75
2022/06/23 03:05:46;;;;;;;4.85;4.13;;;17.50;23.10;;;;;;4999471;28;34134;-77
2022/06/23 03:08:30;;;;;;;8.02;4.63;;;17.40;23.20;;;;;;5003479;28;34232;-76
2022/06/23 03:11:02;;;;;;;5.03;4.13;;;17.40;24.10;;;;;;4970579;28;35826;-77
2022/06/23 03:13:47;;;;;;;6.70;4.35;;;17.40;22.80;;;;;;4987612;28;34314;-76
2022/06/23 03:16:31;;;;;;;5.70;4.60;;;17.30;24.10;;;;;;4987303;28;34151;-76
2022/06/23 03:19:11;;;;;;;6.07;4.60;;;17.30;23.90;;;;;;4987246;28;34148;-76
2022/06/23 03:21:45;;;;;;;9.00;4.78;;;17.30;22.90;;;;;;4987488;28;35624;-76
2022/06/23 03:24:29;;;;;;;6.13;4.75;;;17.30;23.20;;;;;;4986991;28;34195;-76
2022/06/23 03:27:04;;;;;;;5.70;4.80;;;17.30;24.20;;;;;;4986981;28;34170;-77
2022/06/23 03:29:34;;;;;;;12.63;4.93;;;17.20;23.10;;;;;;5005057;28;34133;-76
2022/06/23 03:32:17;;;;;;;10.73;5.05;;;17.20;22.70;;;;;;5004509;28;34317;-76
2022/06/23 03:34:59;;;;;;;4.55;4.15;;;17.20;23.20;;;;;;5003028;28;34241;-76
2022/06/23 03:37:45;;;;;;;6.57;4.90;;;17.20;22.90;;;;;;4980047;28;34737;-77
2022/06/23 03:43:15;;;;;;;5.25;3.75;;;17.10;23.40;;;;;;4989070;28;34019;-77
2022/06/23 03:45:50;;;;;;;6.93;4.20;;;17.10;23.30;;;;;;4987145;28;34381;-77
2022/06/23 03:48:28;;;;;;;6.70;4.93;;;17.10;23.20;;;;;;4978863;28;34174;-77
2022/06/23 03:51:17;;;;;;;5.72;4.80;;;17.10;23.10;;;;;;5003224;28;34324;-77
2022/06/23 03:54:02;;;;;;;6.40;4.63;;;17.10;24.50;;;;;;5003940;28;34247;-77
2022/06/23 03:56:35;;;;;;;5.78;4.82;;;17.10;24.20;;;;;;4984057;28;34359;-77
2022/06/23 03:59:13;;;;;;;4.95;4.50;;;17.10;23.00;;;;;;5007191;28;34207;-77
2022/06/23 04:01:57;;;;;;;7.53;4.78;;;17.10;23.20;;;;;;4995661;28;34086;-77
2022/06/23 04:04:38;;;;;;;7.25;5.10;;;17.10;24.40;;;;;;4997023;28;35481;-76
2022/06/23 04:07:34;;;;;;;6.35;4.43;;;17.10;22.90;;;;;;5003962;28;34518;-77
2022/06/23 04:10:04;;;;;;;7.07;4.72;;;17.10;24.60;;;;;;5003174;28;34295;-77
2022/06/23 04:12:32;;;;;;;8.95;5.07;;;17.10;22.90;;;;;;5003351;28;35868;-77
2022/06/23 04:15:03;;;;;;;7.30;4.60;;;17.10;22.80;;;;;;5003276;28;36738;-78
2022/06/23 04:17:43;;;;;;;8.65;4.93;;;17.10;23.10;;;;;;5002938;28;34187;-77
2022/06/23 04:20:20;;;;;;;9.20;4.50;;;17.10;23.80;;;;;;5003787;28;34322;-77
2022/06/23 04:22:57;;;;;;;7.68;4.90;;;17.10;23.10;;;;;;5003386;28;34091;-77
2022/06/23 04:25:37;;;;;;;7.15;4.78;;;17.10;23.40;;;;;;4979449;28;36354;-77
2022/06/23 04:28:06;;;;;;;6.68;5.30;;;17.10;23.80;;;;;;5008806;28;34001;-77
2022/06/23 04:30:36;;;;;;;6.50;4.28;;;17.10;22.80;;;;;;4988843;28;34083;-77
2022/06/23 04:33:06;;;;;;;8.90;5.05;;;17.20;22.90;;;;;;5004103;28;34193;-77
2022/06/23 04:35:36;;;;;;;6.80;4.88;;;17.20;22.80;;;;;;5003844;28;36000;-77
2022/06/23 04:38:20;;;;;;;7.03;4.90;;;17.30;23.00;;;;;;5002785;28;34370;-77
2022/06/23 04:40:53;;;;;;;4.88;4.47;;;17.40;24.40;;;;;;5004213;28;34399;-77
2022/06/23 04:43:38;;;;;;;7.15;4.85;;;17.40;22.90;;;;;;4995042;28;34510;-77
2022/06/23 04:46:15;;;;;;;5.93;5.07;;;17.40;22.80;;;;;;5002709;28;35776;-78
2022/06/23 04:48:59;;;;;;;5.95;4.57;;;17.50;23.20;;;;;;5003474;28;34383;-77
2022/06/23 04:51:38;;;;;;;8.40;4.80;;;17.50;24.10;;;;;;4979844;28;34354;-77
2022/06/23 04:54:19;;;;;;;5.82;4.80;;;17.60;23.80;;;;;;4986425;28;34157;-77
2022/06/23 04:57:08;;;;;;;10.60;5.00;;;17.60;24.00;;;;;;5002560;28;35948;-77
2022/06/23 04:59:42;;;;;;;7.65;4.80;;;17.70;24.60;;;;;;4986629;28;34074;-77
2022/06/23 05:02:22;;;;;;;5.38;4.88;;;17.70;24.20;;;;;;4986346;28;34138;-77
2022/06/23 05:05:14;;;;;;;6.97;4.93;;;17.70;23.70;;;;;;4986433;28;34135;-77
2022/06/23 05:08:01;;;;;;;5.97;4.70;;;17.70;24.50;;;;;;4961871;28;35544;-77
2022/06/23 05:10:48;;;;;;;5.22;4.43;;;17.70;23.50;;;;;;4974810;28;34097;-77
2022/06/23 05:13:19;;;;;;;11.25;5.80;;;17.80;23.50;;;;;;5004524;28;34227;-77
2022/06/23 05:15:51;;;;;;;8.20;5.30;;;18.00;23.20;;;;;;4987240;28;34014;-78
2022/06/23 05:18:24;;;;;;;9.50;5.82;;;18.10;23.10;;;;;;4995602;28;36175;-77
2022/06/23 05:21:04;;;;;;;7.55;5.53;;;18.30;23.70;;;;;;5003561;28;34355;-78
2022/06/23 05:23:42;;;;;;;8.88;5.70;;;18.50;22.90;;;;;;4986158;28;34112;-77
2022/06/23 05:26:20;;;;;;;10.88;6.15;;;19.10;24.30;;;;;;4986018;28;34445;-77
2022/06/23 05:28:50;;;;;;;8.10;5.53;;;19.90;22.30;;;;;;4986865;28;34125;-78
2022/06/23 05:31:22;;;;;;;7.28;5.55;;;20.80;20.00;;;;;;4977344;28;34003;-77
2022/06/23 05:33:53;;;;;;;6.00;4.93;;;21.60;18.70;;;;;;5018606;28;34293;-77
2022/06/23 05:36:26;;;;;;;5.47;4.90;;;22.30;18.00;;;;;;5016034;28;34546;-77
2022/06/23 05:39:11;;;;;;;5.53;4.60;;;22.90;16.50;;;;;;5005594;28;36658;-77
2022/06/23 05:41:49;;;;;;;5.35;4.85;;;23.70;15.80;;;;;;5003523;28;34119;-77
2022/06/23 05:44:20;;;;;;;5.55;4.78;;;24.40;14.70;;;;;;4978094;28;34272;-77
2022/06/23 05:46:48;;;;;;;5.45;4.70;;;25.00;14.20;;;;;;5003170;28;34110;-77
2022/06/23 05:49:22;;;;;;;5.00;4.07;;;25.60;13.10;;;;;;4987348;28;35527;-77
2022/06/23 05:51:59;;;;;;;4.63;4.22;;;26.30;12.00;;;;;;4997900;28;34110;-77
2022/06/23 05:54:41;;;;;;;6.68;4.15;;;26.90;10.90;;;;;;4998764;28;34169;-77
2022/06/23 05:57:33;;;;;;;4.90;3.97;;;27.40;10.00;;;;;;4989421;28;34016;-77
2022/06/23 06:00:22;;;;;;;4.68;4.28;;;27.90;7.60;;;;;;5005045;28;36799;-77
2022/06/23 06:03:09;;;;;;;4.43;4.03;;;28.40;8.00;;;;;;4989121;28;34153;-77
2022/06/23 06:05:41;;;;;;;5.20;4.65;;;28.80;7.30;;;;;;4983993;28;34295;-78
2022/06/23 06:08:14;;;;;;;5.75;4.18;;;29.00;8.30;;;;;;5005630;28;34075;-77
2022/06/23 06:10:41;;;;;;;6.72;4.88;;;29.00;6.70;;;;;;5005377;28;36029;-77
2022/06/23 06:13:15;;;;;;;4.72;4.00;;;28.90;7.90;;;;;;5006384;28;34059;-77
2022/06/23 06:15:46;;;;;;;5.85;4.57;;;28.90;6.90;;;;;;5004709;28;34118;-76
2022/06/23 06:18:30;;;;;;;7.18;4.10;;;28.60;7.40;;;;;;5006783;28;34425;-76
2022/06/23 06:20:59;;;;;;;5.28;4.68;;;28.40;6.80;;;;;;4988432;28;35736;-76
2022/06/23 06:23:46;;;;;;;6.68;4.40;;;28.10;9.20;;;;;;4988779;28;34212;-76
2022/06/23 06:26:16;;;;;;;4.50;4.10;;;28.00;7.50;;;;;;4988703;28;34094;-76
2022/06/23 06:28:42;;;;;;;5.97;4.13;;;28.00;9.50;;;;;;4972969;28;34184;-76
2022/06/23 06:31:22;;;;;;;6.00;4.25;;;28.10;9.80;;;;;;5005829;28;34943;-77
2022/06/23 06:34:14;;;;;;;6.35;4.45;;;27.80;9.00;;;;;;4997880;28;34077;-76
2022/06/23 06:36:43;;;;;;;4.82;4.05;;;27.60;7.60;;;;;;5000016;28;34060;-76
2022/06/23 06:39:17;;;;;;;8.07;4.03;;;27.30;10.00;;;;;;5005020;28;34921;-76
2022/06/23 06:41:47;;;;;;;5.35;4.30;;;27.10;10.20;;;;;;5004411;28;36400;-76
2022/06/23 06:44:15;;;;;;;7.50;4.30;;;26.80;10.60;;;;;;4972367;28;34206;-76
2022/06/23 06:46:44;;;;;;;7.18;4.20;;;26.60;11.30;;;;;;4988380;28;34267;-76
2022/06/23 06:49:19;;;;;;;5.90;3.95;;;26.30;11.50;;;;;;4988129;28;34289;-76
2022/06/23 06:51:47;;;;;;;5.47;3.72;;;26.20;11.60;;;;;;5000999;28;35982;-75
2022/06/23 06:54:22;;;;;;;5.57;4.53;;;26.10;12.30;;;;;;5022083;28;34225;-76
2022/06/23 06:56:52;;;;;;;5.82;3.75;;;26.00;12.40;;;;;;5024292;28;34353;-76
2022/06/23 06:59:30;;;;;;;8.63;3.72;;;26.00;12.40;;;;;;5007262;28;34156;-76
2022/06/23 07:02:04;;;;;;;6.85;3.88;;;26.20;12.20;;;;;;5004249;28;35746;-76
2022/06/23 07:04:41;;;;;;;9.02;3.67;;;26.60;11.50;;;;;;5004651;28;34158;-75
2022/06/23 07:07:12;;;;;;;5.25;3.42;;;27.30;12.50;;;;;;5004482;28;34759;-76
2022/06/23 07:09:46;;;;;;;4.70;3.10;;;27.90;9.60;;;;;;4971716;28;34422;-76
2022/06/23 07:12:19;;;;;;;4.13;2.63;;;28.10;9.80;;;;;;5020046;28;34944;-77
2022/06/23 07:15:04;;;;;;;7.05;2.72;;;28.20;9.50;;;;;;5023985;28;34256;-77
2022/06/23 07:17:43;;;;;;;5.88;2.95;;;28.20;7.90;;;;;;5012267;28;34318;-79
2022/06/23 07:20:28;;;;;;;4.35;2.80;;;28.10;9.60;;;;;;5004222;28;34235;-76
2022/06/23 07:23:03;;;;;;;8.55;3.05;;;27.80;7.90;;;;;;5004872;28;34338;-77
2022/06/23 07:25:34;;;;;;;6.13;3.10;;;27.70;8.90;;;;;;4987561;28;34385;-76
2022/06/23 07:28:12;;;;;;;8.30;2.70;;;27.90;8.80;;;;;;5000657;28;34171;-76
2022/06/23 07:30:42;;;;;;;4.70;2.63;;;28.30;9.00;;;;;;5002203;28;34089;-78
2022/06/23 07:33:17;;;;;;;5.22;2.95;;;28.50;7.60;;;;;;4998922;28;35762;-75
2022/06/23 07:35:49;;;;;;;6.22;2.40;;;28.90;7.90;;;;;;5007926;28;34226;-77
2022/06/23 07:38:25;;;;;;;4.57;2.83;;;29.20;7.50;;;;;;5024672;28;34305;-77
2022/06/23 07:40:58;;;;;;;2.85;2.22;;;29.50;5.90;;;;;;4985095;28;34185;-77
2022/06/23 07:43:34;;;;;;;6.63;3.05;;;29.90;6.80;;;;;;4987035;28;35638;-78
2022/06/23 07:46:01;;;;;;;3.55;2.30;;;30.30;5.60;;;;;;5001048;28;34269;-77
2022/06/23 07:48:29;;;;;;;5.45;2.80;;;30.20;6.40;;;;;;5004986;28;34133;-76
2022/06/23 07:50:57;;;;;;;6.85;2.55;;;30.40;6.20;;;;;;5005238;28;34392;-77
2022/06/23 07:53:27;;;;;;;5.13;2.50;;;30.40;6.10;;;;;;4987873;28;35567;-78
2022/06/23 07:55:53;;;;;;;6.35;2.70;;;30.60;4.60;;;;;;4971432;28;34191;-79
2022/06/23 07:58:23;;;;;;;6.30;3.33;;;30.80;5.60;;;;;;4988050;28;34033;-77
2022/06/23 08:00:57;;;;;;;4.05;2.88;;;30.90;4.40;;;;;;5001858;28;34434;-77
2022/06/23 08:03:33;;;;;;;3.55;2.70;;;30.90;3.60;;;;;;4977492;28;35518;-79
2022/06/23 08:06:05;;;;;;;8.98;2.70;;;31.20;4.20;;;;;;4991845;28;34207;-78
2022/06/23 08:08:34;;;;;;;5.30;2.58;;;31.30;4.00;;;;;;5003669;28;34382;-77
2022/06/23 08:13:50;;;;;;;4.65;2.80;;;31.30;4.90;;;;;;4991279;28;34679;-77
2022/06/23 08:19:07;;;;;;;9.60;2.75;;;32.10;4.30;;;;;;5003759;28;34285;-79
2022/06/23 08:21:39;;;;;;;4.65;2.85;;;32.20;3.00;;;;;;5014563;28;34239;-77
2022/06/23 08:24:23;;;;;;;5.05;2.53;;;32.20;2.90;;;;;;5015240;28;35772;-77
2022/06/23 08:26:57;;;;;;;4.93;2.42;;;32.20;2.00;;;;;;5006454;28;34271;-77
2022/06/23 08:29:29;;;;;;;4.78;2.55;;;32.10;3.00;;;;;;4998684;28;34179;-80
2022/06/23 08:31:56;;;;;;;4.20;2.85;;;32.00;2.90;;;;;;4972921;28;34435;-77
2022/06/23 08:34:22;;;;;;;3.65;2.53;;;32.20;3.60;;;;;;4987226;28;35651;-78
2022/06/23 08:36:52;;;;;;;5.95;2.50;;;32.20;3.50;;;;;;4995505;28;34100;-77
2022/06/23 08:39:25;;;;;;;6.20;2.78;;;32.10;3.60;;;;;;4995123;28;34087;-77
2022/06/23 08:42:14;;;;;;;7.13;2.47;;;32.10;2.40;;;;;;4987411;28;34664;-76
2022/06/23 08:44:50;;;;;;;4.78;2.40;;;31.80;3.00;;;;;;4997979;28;36424;-77
2022/06/23 08:47:37;;;;;;;5.30;2.45;;;31.60;2.60;;;;;;4999465;28;34197;-79
2022/06/23 08:50:17;;;;;;;13.55;3.00;;;31.50;2.70;;;;;;5023866;28;34294;-78
2022/06/23 08:52:56;;;;;;;5.75;2.42;;;31.10;1.90;;;;;;5000178;28;34187;-76
2022/06/23 08:55:29;;;;;;;4.88;2.40;;;30.80;3.30;;;;;;4986868;28;35742;-78
2022/06/23 08:58:05;;;;;;;4.22;2.55;;;30.60;3.50;;;;;;4986489;28;33734;-76
2022/06/23 09:00:43;;;;;;;5.80;2.78;;;30.50;3.60;;;;;;4987346;28;34082;-75
2022/06/23 09:03:28;;;;;;;8.18;2.55;;;30.40;4.60;;;;;;5004244;28;34190;-76
2022/06/23 09:06:17;;;;;;;6.55;2.90;;;30.20;4.70;;;;;;5003474;28;35979;-75
2022/06/23 09:09:04;;;;;;;7.95;2.58;;;30.20;5.30;;;;;;4987057;28;34446;-75
2022/06/23 09:11:52;;;;;;;5.00;2.70;;;30.40;4.00;;;;;;4964168;28;34166;-75
2022/06/23 09:14:44;;;;;;;4.90;2.55;;;30.20;3.30;;;;;;4979930;28;34158;-78
2022/06/23 09:17:35;;;;;;;8.43;2.70;;;30.10;4.90;;;;;;5005385;28;34278;-76
2022/06/23 09:20:31;;;;;;;7.68;3.00;;;30.10;4.80;;;;;;4987472;28;34156;-76
2022/06/23 09:23:20;;;;;;;6.22;3.25;;;30.00;5.00;;;;;;5005043;28;34022;-77
2022/06/23 09:26:00;;;;;;;8.63;3.67;;;30.60;3.80;;;;;;5006587;28;34112;-76
2022/06/23 09:28:56;;;;;;;8.10;2.80;;;30.90;2.40;;;;;;4984310;28;35529;-77
2022/06/23 09:31:51;;;;;;;4.15;2.72;;;31.10;3.90;;;;;;4994985;28;34398;-77
2022/06/23 09:34:57;;;;;;;7.65;3.15;;;31.20;3.10;;;;;;5010365;28;34366;-77
2022/06/23 09:38:01;;;;;;;8.43;3.35;;;31.30;1.90;;;;;;4993082;28;34445;-77
2022/06/23 09:40:50;;;;;;;8.63;3.20;;;31.30;1.80;;;;;;4990337;28;35898;-79
2022/06/23 09:43:46;;;;;;;6.05;3.28;;;31.20;1.00;;;;;;4966548;28;34314;-78
2022/06/23 09:46:38;;;;;;;8.02;3.38;;;31.10;1.90;;;;;;5007116;28;34065;-76
2022/06/23 09:49:33;;;;;;;8.23;3.35;;;31.30;3.70;;;;;;4971887;28;34312;-76
2022/06/23 09:52:21;;;;;;;6.82;3.17;;;31.60;2.80;;;;;;4986292;28;35494;-76
2022/06/23 09:55:19;;;;;;;5.75;3.30;;;31.70;1.30;;;;;;4961018;28;34152;-77
2022/06/23 09:57:57;;;;;;;9.82;3.75;;;31.70;1.30;;;;;;4995183;28;34235;-77
2022/06/23 10:00:59;;;;;;;5.07;3.53;;;31.90;3.80;;;;;;4982781;28;34573;-76
2022/06/23 10:03:41;;;;;;;10.50;3.58;;;32.20;2.70;;;;;;4967733;28;36906;-77
2022/06/23 10:06:32;;;;;;;9.43;3.90;;;32.40;1.00;;;;;;5007732;28;34213;-75
2022/06/23 10:09:16;;;;;;;6.03;3.60;;;32.50;1.50;;;;;;5002490;28;34145;-77
2022/06/23 10:11:57;;;;;;;8.38;4.05;;;32.70;1.10;;;;;;4970519;28;34169;-77
2022/06/23 10:14:45;;;;;;;5.80;3.53;;;32.70;1.00;;;;;;4981822;28;34988;-76
2022/06/23 10:17:42;;;;;;;6.53;3.78;;;32.80;1.00;;;;;;5005532;28;34319;-77
2022/06/23 10:20:28;;;;;;;7.07;3.60;;;32.80;1.00;;;;;;5005753;28;34220;-76
2022/06/23 10:23:23;;;;;;;8.32;3.85;;;33.00;1.00;;;;;;4989003;28;34360;-77
2022/06/23 10:26:14;;;;;;;4.80;3.20;;;32.90;1.00;;;;;;5005355;28;35752;-77
2022/06/23 10:28:58;;;;;;;7.13;3.28;;;32.90;1.00;;;;;;5001754;28;34185;-78
2022/06/23 10:31:58;;;;;;;6.15;3.60;;;33.00;1.00;;;;;;4998890;28;34150;-77
2022/06/23 10:34:54;;;;;;;6.10;3.92;;;32.90;1.00;;;;;;4999527;28;34256;-77
2022/06/23 10:37:50;;;;;;;5.75;3.60;;;32.80;1.00;;;;;;4997539;28;36429;-76
2022/06/23 10:40:40;;;;;;;7.65;3.25;;;33.10;1.00;;;;;;4995037;28;34265;-77
2022/06/23 10:43:35;;;;;;;9.38;3.33;;;33.10;1.00;;;;;;5004841;28;34169;-77
2022/06/23 10:46:14;;;;;;;5.43;3.17;;;33.20;1.00;;;;;;5004661;28;34174;-76
2022/06/23 10:49:01;;;;;;;9.43;3.55;;;33.20;1.00;;;;;;4989457;28;35808;-76
2022/06/23 10:52:00;;;;;;;4.85;3.33;;;33.60;1.00;;;;;;4989228;28;34163;-77
2022/06/23 10:54:53;;;;;;;10.45;3.67;;;33.80;1.00;;;;;;4982076;28;34228;-76
2022/06/23 10:57:47;;;;;;;4.00;3.20;;;33.90;1.00;;;;;;4981570;28;34396;-78
2022/06/23 11:00:40;;;;;;;7.53;3.80;;;33.90;1.00;;;;;;5001012;28;34609;-77
2022/06/23 11:03:24;;;;;;;6.60;3.55;;;33.90;1.00;;;;;;5006141;28;34241;-76
2022/06/23 11:06:09;;;;;;;9.45;3.28;;;34.00;1.00;;;;;;5006075;28;34118;-75
2022/06/23 11:08:58;;;;;;;8.55;3.05;;;34.20;1.00;;;;;;5004663;28;34395;-75
2022/06/23 11:11:55;;;;;;;6.57;3.03;;;34.20;1.00;;;;;;5000679;28;36499;-77
2022/06/23 11:14:46;;;;;;;5.53;3.03;;;34.20;1.00;;;;;;4981562;28;34746;-77
2022/06/23 11:17:34;;;;;;;6.75;3.10;;;34.20;1.00;;;;;;4982795;28;34018;-75
2022/06/23 11:20:23;;;;;;;8.48;3.20;;;34.10;1.00;;;;;;4983097;28;34111;-75
2022/06/23 11:23:01;;;;;;;5.80;2.92;;;33.80;1.00;;;;;;5004084;28;35579;-75
2022/06/23 11:25:58;;;;;;;7.18;2.67;;;33.60;1.00;;;;;;4999639;28;34242;-75
2022/06/23 11:28:47;;;;;;;4.82;2.70;;;33.60;1.00;;;;;;4978324;28;34130;-76
2022/06/23 11:31:44;;;;;;;6.18;2.95;;;33.70;1.00;;;;;;4985542;28;34195;-78
2022/06/23 11:34:35;;;;;;;6.68;2.50;;;33.80;1.00;;;;;;4974364;28;35954;-78
2022/06/23 11:37:20;;;;;;;4.30;2.45;;;33.90;1.00;;;;;;5004253;28;34148;-76
2022/06/23 11:40:12;;;;;;;4.57;2.13;;;34.00;1.00;;;;;;5006032;28;35310;-79
2022/06/23 11:43:00;;;;;;;6.72;2.65;;;34.00;1.00;;;;;;5000866;28;34155;-76
2022/06/23 11:45:57;;;;;;;9.63;2.40;;;33.90;1.00;;;;;;5000726;28;36331;-79
2022/06/23 11:48:54;;;;;;;3.50;2.20;;;33.70;1.00;;;;;;4990859;28;34233;-75
2022/06/23 11:51:37;;;;;;;5.85;2.30;;;33.80;1.00;;;;;;4946875;28;34474;-75
2022/06/23 11:54:36;;;;;;;8.75;2.70;;;34.00;1.00;;;;;;4952525;28;34376;-77
2022/06/23 11:57:17;;;;;;;6.93;2.10;;;34.10;1.00;;;;;;4969034;28;36622;-75
2022/06/23 12:00:05;;;;;;;5.78;2.17;;;33.90;1.00;;;;;;5005643;28;34416;-79
2022/06/23 12:02:37;;;;;;;4.85;2.08;;;33.60;1.00;;;;;;4982323;28;34099;-77
2022/06/23 12:05:39;;;;;;;5.32;1.90;;;33.40;1.00;;;;;;5005190;28;34100;-77
2022/06/23 12:08:30;;;;;;;3.05;1.98;;;33.40;1.00;;;;;;5000356;28;35022;-76
2022/06/23 12:10:56;;;;;;;6.10;1.80;;;33.40;1.00;;;;;;4967387;28;34181;-75
2022/06/23 12:13:26;;;;;;;4.38;1.65;;;33.10;1.00;;;;;;4985374;28;34134;-75
2022/06/23 12:15:55;;;;;;;3.03;1.80;;;32.80;1.00;;;;;;4984841;28;34371;-76
2022/06/23 12:18:28;;;;;;;3.83;1.50;;;32.60;1.00;;;;;;4997048;28;35573;-77
2022/06/23 12:21:06;;;;;;;3.78;1.77;;;32.70;1.00;;;;;;5004826;28;34079;-75
2022/06/23 12:23:47;;;;;;;4.28;1.98;;;32.50;1.00;;;;;;4986425;28;34202;-76
2022/06/23 12:26:35;;;;;;;3.47;1.50;;;32.20;1.00;;;;;;5004691;28;34414;-76
2022/06/23 12:29:49;;;;;;;6.85;1.83;;;32.00;1.00;;;;;;5003094;28;35478;-76
2022/06/23 12:32:33;;;;;;;7.10;1.65;;;32.00;1.00;;;;;;4999658;28;34403;-77
2022/06/23 12:35:22;;;;;;;7.22;1.92;;;32.20;1.00;;;;;;5002613;28;34435;-77
2022/06/23 12:37:58;;;;;;;3.83;1.50;;;32.50;1.00;;;;;;5000048;28;34015;-76
2022/06/23 12:40:35;;;;;;;8.70;1.90;;;32.50;1.00;;;;;;4996779;28;36441;-75
2022/06/23 12:43:22;;;;;;;4.72;2.00;;;32.60;1.00;;;;;;5001275;28;34955;-76
2022/06/23 12:46:16;;;;;;;2.72;1.70;;;32.50;1.00;;;;;;4997149;28;34255;-76
2022/06/23 12:49:00;;;;;;;4.10;1.60;;;32.30;1.00;;;;;;4998693;28;34113;-76
2022/06/23 12:51:42;;;;;;;4.18;1.40;;;32.10;1.00;;;;;;4979947;28;36555;-76
2022/06/23 12:54:45;;;;;;;4.22;1.52;;;32.20;1.00;;;;;;5004499;28;34358;-76
2022/06/23 13:00:41;;;;;;;2.65;1.50;;;32.70;1.00;;;;;;4991514;28;34379;-76
2022/06/23 13:03:28;;;;;;;4.53;1.10;;;32.80;1.00;;;;;;4970190;28;35740;-77
2022/06/23 13:06:10;;;;;;;2.20;1.50;;;33.00;1.00;;;;;;5002994;28;34698;-76
2022/06/23 13:08:47;;;;;;;2.63;1.45;;;33.10;1.00;;;;;;5003581;28;34334;-75
2022/06/23 13:11:18;;;;;;;2.80;1.58;;;32.90;1.00;;;;;;5002594;28;34333;-76
2022/06/23 13:13:49;;;;;;;5.30;1.60;;;33.00;1.00;;;;;;4986947;28;36363;-76
2022/06/23 13:16:27;;;;;;;6.25;1.67;;;33.20;1.00;;;;;;4995792;28;34016;-78
2022/06/23 13:19:05;;;;;;;4.53;1.50;;;33.50;1.00;;;;;;5023529;28;34118;-77
2022/06/23 13:21:33;;;;;;;2.65;1.52;;;33.80;1.00;;;;;;4998805;28;34312;-76
2022/06/23 13:24:07;;;;;;;3.00;1.45;;;34.10;1.00;;;;;;5003066;28;36144;-80
2022/06/23 13:26:38;;;;;;;5.53;1.55;;;34.10;1.00;;;;;;5003404;28;34296;-77
2022/06/23 13:29:12;;;;;;;5.05;1.75;;;34.10;1.00;;;;;;5003276;28;34062;-78
2022/06/23 13:32:00;;;;;;;4.57;1.65;;;33.90;1.00;;;;;;4969964;28;34137;-78
2022/06/23 13:34:33;;;;;;;5.55;1.40;;;33.70;1.00;;;;;;4986694;28;34447;-78
2022/06/23 13:37:09;;;;;;;9.93;1.70;;;33.50;1.00;;;;;;4998980;28;34042;-77
2022/06/23 13:40:05;;;;;;;3.88;1.30;;;33.30;1.00;;;;;;4966748;28;34210;-77
2022/06/23 13:42:42;;;;;;;3.28;1.50;;;33.00;1.00;;;;;;4977356;28;34466;-76
2022/06/23 13:45:33;;;;;;;5.18;1.40;;;32.90;1.00;;;;;;4983451;28;36550;-77
2022/06/23 13:48:31;;;;;;;3.85;1.35;;;32.70;1.00;;;;;;5018255;28;34108;-77
2022/06/23 13:51:13;;;;;;;4.63;1.38;;;32.60;1.00;;;;;;5003652;28;34137;-76
2022/06/23 13:54:04;;;;;;;3.08;1.58;;;32.50;1.00;;;;;;5003580;28;34091;-77
2022/06/23 13:56:41;;;;;;;3.40;1.58;;;32.60;1.00;;;;;;4997202;28;35183;-77
2022/06/23 13:59:17;;;;;;;1.98;1.27;;;32.70;1.00;;;;;;5003353;28;34371;-76
2022/06/23 14:01:54;;;;;;;4.30;1.70;;;33.00;1.00;;;;;;4988602;28;34097;-76
2022/06/23 14:04:40;;;;;;;3.70;1.48;;;33.20;1.00;;;;;;4979011;28;34108;-76
2022/06/23 14:07:18;;;;;;;5.60;1.50;;;33.40;1.00;;;;;;5000783;28;35158;-76
2022/06/23 14:10:16;;;;;;;4.68;1.70;;;33.50;1.00;;;;;;5026370;28;34507;-77
2022/06/23 14:13:01;;;;;;;2.28;1.40;;;33.50;1.00;;;;;;5043537;28;34329;-76
2022/06/23 14:15:48;;;;;;;1.88;1.33;;;33.70;1.00;;;;;;5045160;28;34078;-77